createdAt,value
2018-05-23T00:02:27.251Z,101130.73
2018-05-23T00:04:56.899Z,101131.44
2018-05-23T00:07:25.389Z,101143.64
2018-05-23T00:09:54.109Z,101146.68
2018-05-23T00:12:22.492Z,101145.45
2018-05-23T00:14:50.849Z,101140.23
2018-05-23T00:17:20.475Z,101141.98
2018-05-23T00:19:49.585Z,101150.83
2018-05-23T00:22:20.443Z,101152.20
2018-05-23T00:24:48.951Z,101164.28
2018-05-23T00:27:17.981Z,101155.56
2018-05-23T00:29:46.328Z,101162.09
2018-05-23T00:32:14.717Z,101158.19
2018-05-23T00:34:43.389Z,101158.64
2018-05-23T00:37:11.733Z,101168.28
2018-05-23T00:39:40.103Z,101163.98
2018-05-23T00:42:08.567Z,101162.70
2018-05-23T00:44:38.001Z,101161.80
2018-05-23T00:47:06.387Z,101160.95
2018-05-23T00:49:34.730Z,101156.70
2018-05-23T00:52:03.840Z,101162.32
2018-05-23T00:54:33.052Z,101161.53
2018-05-23T00:57:01.611Z,101164.33
2018-05-23T00:59:30.842Z,101160.95
2018-05-23T01:01:59.396Z,101165.87
2018-05-23T01:04:28.582Z,101164.17
2018-05-23T01:06:57.647Z,101163.17
2018-05-23T01:09:25.977Z,101164.38
2018-05-23T01:11:55.072Z,101153.49
2018-05-23T01:14:24.157Z,101157.66
2018-05-23T01:16:53.296Z,101153.83
2018-05-23T01:19:21.702Z,101150.92
2018-05-23T01:21:50.729Z,101158.28
2018-05-23T01:24:19.838Z,101156.16
2018-05-23T01:26:48.260Z,101159.20
2018-05-23T01:29:17.546Z,101159.40
2018-05-23T01:31:45.915Z,101155.64
2018-05-23T01:34:14.960Z,101166.89
2018-05-23T01:36:43.350Z,101169.41
2018-05-23T01:39:12.769Z,101167.30
2018-05-23T01:41:41.147Z,101171.72
2018-05-23T01:44:10.320Z,101166.61
2018-05-23T01:46:38.713Z,101180.28
2018-05-23T01:49:25.733Z,101183.36
2018-05-23T01:51:55.237Z,101193.90
2018-05-23T01:54:24.329Z,101186.94
2018-05-23T01:56:53.449Z,101190.44
2018-05-23T01:59:22.439Z,101196.75
2018-05-23T02:01:50.988Z,101194.17
2018-05-23T02:04:19.657Z,101194.20
2018-05-23T02:06:49.082Z,101200.28
2018-05-23T02:09:18.230Z,101199.92
2018-05-23T02:11:46.669Z,101202.09
2018-05-23T02:14:16.648Z,101204.17
2018-05-23T02:16:45.750Z,101202.39
2018-05-23T02:19:15.239Z,101199.08
2018-05-23T02:21:44.622Z,101205.54
2018-05-23T02:24:12.981Z,101205.48
2018-05-23T02:26:41.359Z,101205.12
2018-05-23T02:29:09.715Z,101207.50
2018-05-23T02:31:39.622Z,101201.76
2018-05-23T02:34:08.699Z,101201.74
2018-05-23T02:36:37.083Z,101201.81
2018-05-23T02:39:06.340Z,101205.00
2018-05-23T02:41:34.705Z,101211.52
2018-05-23T02:44:03.021Z,101211.23
2018-05-23T02:46:31.428Z,101213.85
2018-05-23T02:48:59.767Z,101222.48
2018-05-23T02:51:28.119Z,101225.58
2018-05-23T02:53:56.518Z,101222.60
2018-05-23T02:56:25.535Z,101226.27
2018-05-23T02:58:54.219Z,101230.30
2018-05-23T03:01:22.587Z,101227.38
2018-05-23T03:03:50.941Z,101229.33
2018-05-23T03:06:20.110Z,101229.23
2018-05-23T03:08:51.966Z,101237.02
2018-05-23T03:11:21.981Z,101242.67
2018-05-23T03:13:51.182Z,101250.38
2018-05-23T03:16:21.297Z,101250.41
2018-05-23T03:18:49.956Z,101250.84
2018-05-23T03:21:20.074Z,101252.53
2018-05-23T03:23:49.443Z,101252.23
2018-05-23T03:26:18.577Z,101254.39
2018-05-23T03:28:46.945Z,101248.83
2018-05-23T03:31:15.351Z,101256.66
2018-05-23T03:33:43.710Z,101250.17
2018-05-23T03:36:13.142Z,101255.71
2018-05-23T03:38:42.243Z,101261.88
2018-05-23T03:41:10.631Z,101264.83
2018-05-23T03:43:39.775Z,101263.48
2018-05-23T03:46:08.138Z,101267.86
2018-05-23T03:48:36.996Z,101272.70
2018-05-23T03:51:06.193Z,101278.77
2018-05-23T03:53:36.257Z,101277.48
2018-05-23T03:56:05.621Z,101281.91
2018-05-23T03:58:34.832Z,101284.66
2018-05-23T04:04:36.998Z,101291.14
2018-05-23T04:10:18.843Z,101304.42
2018-05-23T04:12:48.559Z,101304.46
2018-05-23T04:15:17.758Z,101302.36
2018-05-23T04:17:47.188Z,101306.72
2018-05-23T04:20:15.611Z,101301.93
2018-05-23T04:22:44.762Z,101311.46
2018-05-23T04:25:13.951Z,101308.97
2018-05-23T04:27:42.954Z,101315.50
2018-05-23T04:30:12.127Z,101316.42
2018-05-23T04:32:41.839Z,101316.36
2018-05-23T04:35:10.214Z,101322.08
2018-05-23T04:37:40.185Z,101323.32
2018-05-23T04:40:09.160Z,101319.37
2018-05-23T04:42:38.535Z,101327.13
2018-05-23T04:45:07.124Z,101328.34
2018-05-23T04:47:35.710Z,101333.94
2018-05-23T04:50:04.089Z,101336.06
2018-05-23T04:52:32.481Z,101333.11
2018-05-23T04:55:01.513Z,101337.88
2018-05-23T04:57:30.705Z,101334.47
2018-05-23T05:00:01.473Z,101339.19
2018-05-23T05:02:30.398Z,101346.66
2018-05-23T05:04:59.674Z,101348.87
2018-05-23T05:07:30.417Z,101349.67
2018-05-23T05:09:59.485Z,101355.37
2018-05-23T05:12:28.585Z,101360.06
2018-05-23T05:14:57.907Z,101362.68
2018-05-23T05:17:27.606Z,101374.84
2018-05-23T05:19:56.628Z,101374.43
2018-05-23T05:22:24.961Z,101377.95
2018-05-23T05:24:54.971Z,101382.77
2018-05-23T05:27:25.144Z,101390.98
2018-05-23T05:29:54.840Z,101389.91
2018-05-23T05:32:23.192Z,101395.50
2018-05-23T05:34:51.873Z,101403.23
2018-05-23T05:37:20.508Z,101396.70
2018-05-23T05:39:48.882Z,101399.65
2018-05-23T05:42:19.089Z,101405.91
2018-05-23T05:44:49.037Z,101403.47
2018-05-23T05:47:18.747Z,101412.41
2018-05-23T05:49:47.125Z,101417.06
2018-05-23T05:52:15.545Z,101416.13
2018-05-23T05:54:44.720Z,101422.09
2018-05-23T05:57:13.833Z,101428.55
2018-05-23T05:59:43.085Z,101434.16
2018-05-23T06:02:11.521Z,101433.20
2018-05-23T06:04:39.905Z,101436.50
2018-05-23T06:07:08.339Z,101439.54
2018-05-23T06:09:37.518Z,101445.17
2018-05-23T06:12:05.924Z,101450.76
2018-05-23T06:14:35.140Z,101449.29
2018-05-23T06:17:04.277Z,101453.92
2018-05-23T06:19:33.354Z,101459.31
2018-05-23T06:22:02.787Z,101455.75
2018-05-23T06:24:31.249Z,101463.87
2018-05-23T06:27:00.451Z,101462.84
2018-05-23T06:29:28.947Z,101462.75
2018-05-23T06:31:58.320Z,101465.61
2018-05-23T06:34:26.680Z,101468.82
2018-05-23T06:36:56.437Z,101465.16
2018-05-23T06:39:24.792Z,101471.84
2018-05-23T06:41:53.156Z,101467.83
2018-05-23T06:44:21.499Z,101465.60
2018-05-23T06:46:51.554Z,101459.30
2018-05-23T06:49:20.704Z,101470.39
2018-05-23T06:51:49.390Z,101472.00
2018-05-23T06:54:18.516Z,101471.41
2018-05-23T06:56:47.672Z,101474.56
2018-05-23T06:59:16.143Z,101470.11
2018-05-23T07:01:46.670Z,101474.70
2018-05-23T07:04:15.412Z,101479.34
2018-05-23T07:06:43.794Z,101480.00
2018-05-23T07:09:12.181Z,101485.64
2018-05-23T07:11:41.506Z,101486.44
2018-05-23T07:14:10.539Z,101490.56
2018-05-23T07:16:38.970Z,101489.34
2018-05-23T07:19:07.530Z,101497.87
2018-05-23T07:21:36.728Z,101495.42
2018-05-23T07:24:05.947Z,101495.98
2018-05-23T07:26:35.811Z,101492.01
2018-05-23T07:29:04.270Z,101498.31
2018-05-23T07:31:33.544Z,101496.03
2018-05-23T07:34:02.883Z,101500.93
2018-05-23T07:36:31.969Z,101502.45
2018-05-23T07:39:00.326Z,101497.41
2018-05-23T07:41:30.277Z,101498.16
2018-05-23T07:43:59.916Z,101506.31
2018-05-23T07:46:29.045Z,101503.91
2018-05-23T07:48:57.757Z,101503.35
2018-05-23T07:51:27.456Z,101505.19
2018-05-23T07:53:56.146Z,101502.97
2018-05-23T07:56:25.597Z,101504.52
2018-05-23T07:58:54.731Z,101496.52
2018-05-23T08:01:24.086Z,101506.73
2018-05-23T08:03:53.440Z,101513.88
2018-05-23T08:06:22.930Z,101514.72
2018-05-23T08:08:52.120Z,101510.82
2018-05-23T08:11:21.335Z,101515.94
2018-05-23T08:13:51.055Z,101520.16
2018-05-23T08:16:19.411Z,101521.63
2018-05-23T08:18:47.781Z,101520.07
2018-05-23T08:21:16.141Z,101527.53
2018-05-23T08:23:44.499Z,101527.27
2018-05-23T08:26:14.616Z,101528.09
2018-05-23T08:28:44.898Z,101531.09
2018-05-23T08:31:13.268Z,101525.88
2018-05-23T08:33:43.413Z,101528.47
2018-05-23T08:36:11.773Z,101528.00
2018-05-23T08:38:40.959Z,101531.83
2018-05-23T08:41:11.213Z,101530.27
2018-05-23T08:43:40.130Z,101535.55
2018-05-23T08:46:08.591Z,101536.22
2018-05-23T08:48:37.724Z,101538.27
2018-05-23T08:51:06.148Z,101535.47
2018-05-23T08:53:35.242Z,101544.05
2018-05-23T08:56:04.381Z,101543.69
2018-05-23T08:58:35.140Z,101539.36
2018-05-23T09:01:03.551Z,101546.06
2018-05-23T09:03:31.970Z,101548.05
2018-05-23T09:06:00.460Z,101547.36
2018-05-23T09:08:31.418Z,101556.78
2018-05-23T09:11:01.354Z,101550.59
2018-05-23T09:13:31.033Z,101560.59
2018-05-23T09:16:01.879Z,101557.72
2018-05-23T09:18:30.325Z,101554.59
2018-05-23T09:20:58.728Z,101553.34
2018-05-23T09:23:27.862Z,101560.08
2018-05-23T09:25:57.128Z,101568.52
2018-05-23T09:28:26.999Z,101567.81
2018-05-23T09:30:55.331Z,101560.70
2018-05-23T09:33:25.226Z,101567.12
2018-05-23T09:35:56.187Z,101567.92
2018-05-23T09:38:24.554Z,101573.81
2018-05-23T09:40:53.732Z,101574.69
2018-05-23T09:43:23.932Z,101572.21
2018-05-23T09:45:52.652Z,101576.72
2018-05-23T09:48:21.829Z,101578.73
2018-05-23T09:50:50.333Z,101579.28
2018-05-23T09:53:20.573Z,101578.61
2018-05-23T09:55:51.028Z,101579.26
2018-05-23T09:58:19.509Z,101577.14
2018-05-23T10:00:47.986Z,101585.81
2018-05-23T10:03:18.753Z,101585.23
2018-05-23T10:05:47.238Z,101579.48
2018-05-23T10:08:15.628Z,101582.98
2018-05-23T10:10:45.488Z,101583.42
2018-05-23T10:13:15.011Z,101580.90
2018-05-23T10:15:43.438Z,101582.30
2018-05-23T10:18:14.373Z,101582.87
2018-05-23T10:20:42.872Z,101588.49
2018-05-23T10:23:11.449Z,101585.20
2018-05-23T10:25:42.578Z,101595.60
2018-05-23T10:28:12.501Z,101587.30
2018-05-23T10:30:43.810Z,101589.61
2018-05-23T10:33:13.696Z,101586.79
2018-05-23T10:35:42.204Z,101591.81
2018-05-23T10:38:11.527Z,101589.39
2018-05-23T10:40:39.963Z,101591.33
2018-05-23T10:43:08.317Z,101594.08
2018-05-23T10:45:36.744Z,101602.67
2018-05-23T10:48:05.142Z,101597.50
2018-05-23T10:50:35.298Z,101591.17
2018-05-23T10:53:03.822Z,101598.63
2018-05-23T10:55:33.316Z,101602.86
2018-05-23T10:58:02.770Z,101596.22
2018-05-23T11:00:32.904Z,101599.80
2018-05-23T11:06:34.510Z,101601.20
2018-05-23T11:09:03.096Z,101605.59
2018-05-23T11:11:32.255Z,101605.48
2018-05-23T11:14:01.387Z,101608.60
2018-05-23T11:16:30.602Z,101610.06
2018-05-23T11:19:00.371Z,101606.11
2018-05-23T11:21:29.597Z,101602.49
2018-05-23T11:23:57.996Z,101599.06
2018-05-23T11:26:27.985Z,101595.69
2018-05-23T11:28:56.422Z,101595.69
2018-05-23T11:31:25.609Z,101599.77
2018-05-23T11:33:55.125Z,101603.54
2018-05-23T11:36:25.663Z,101594.10
2018-05-23T11:38:54.809Z,101599.14
2018-05-23T11:41:25.300Z,101595.37
2018-05-23T11:43:55.449Z,101597.58
2018-05-23T11:46:24.645Z,101593.88
2018-05-23T11:48:53.514Z,101590.39
2018-05-23T11:51:22.561Z,101588.81
2018-05-23T11:53:51.626Z,101588.29
2018-05-23T11:56:22.436Z,101589.51
2018-05-23T11:58:53.116Z,101581.02
2018-05-23T12:01:22.901Z,101591.31
2018-05-23T12:03:52.223Z,101590.27
2018-05-23T12:06:24.034Z,101577.59
2018-05-23T12:08:53.300Z,101579.88
2018-05-23T12:11:22.576Z,101579.98
2018-05-23T12:13:51.012Z,101580.98
2018-05-23T12:16:21.120Z,101577.72
2018-05-23T12:18:52.168Z,101576.56
2018-05-23T12:21:21.726Z,101577.16
2018-05-23T12:23:50.206Z,101572.12
2018-05-23T12:26:18.701Z,101572.45
2018-05-23T12:28:47.856Z,101576.22
2018-05-23T12:31:17.397Z,101572.89
2018-05-23T12:33:46.702Z,101578.72
2018-05-23T12:36:15.271Z,101573.89
2018-05-23T12:38:43.863Z,101574.23
2018-05-23T12:41:12.820Z,101580.33
2018-05-23T12:43:41.903Z,101575.48
2018-05-23T12:46:12.992Z,101579.21
2018-05-23T12:48:42.088Z,101578.57
2018-05-23T12:51:11.870Z,101570.89
2018-05-23T12:53:40.284Z,101568.31
2018-05-23T12:56:08.760Z,101566.52
2018-05-23T12:58:38.053Z,101566.30
2018-05-23T13:01:06.496Z,101568.17
2018-05-23T13:03:35.674Z,101565.02
2018-05-23T13:06:05.581Z,101561.72
2018-05-23T13:08:34.060Z,101568.42
2018-05-23T13:11:02.450Z,101570.80
2018-05-23T13:13:33.569Z,101565.55
2018-05-23T13:16:02.305Z,101559.33
2018-05-23T13:18:30.704Z,101562.31
2018-05-23T13:20:59.173Z,101558.73
2018-05-23T13:23:28.223Z,101566.88
2018-05-23T13:25:56.722Z,101565.09
2018-05-23T13:28:26.532Z,101559.17
2018-05-23T13:30:56.605Z,101560.39
2018-05-23T13:33:26.503Z,101562.35
2018-05-23T13:35:55.291Z,101557.84
2018-05-23T13:38:24.625Z,101555.61
2018-05-23T13:40:53.817Z,101559.72
2018-05-23T13:43:22.433Z,101560.23
2018-05-23T13:45:51.570Z,101552.59
2018-05-23T13:48:20.276Z,101553.22
2018-05-23T13:50:49.103Z,101544.66
2018-05-23T13:53:19.346Z,101541.77
2018-05-23T13:55:49.084Z,101541.80
2018-05-23T13:58:17.669Z,101535.66
2018-05-23T14:00:46.114Z,101532.68
2018-05-23T14:03:15.267Z,101543.91
2018-05-23T14:05:44.912Z,101541.77
2018-05-23T14:08:14.035Z,101542.82
2018-05-23T14:10:44.135Z,101541.27
2018-05-23T14:13:13.324Z,101523.61
2018-05-23T14:15:43.491Z,101531.02
2018-05-23T14:18:11.859Z,101533.58
2018-05-23T14:20:40.301Z,101526.81
2018-05-23T14:23:10.815Z,101527.22
2018-05-23T14:25:41.011Z,101524.44
2018-05-23T14:28:11.307Z,101528.77
2018-05-23T14:30:39.646Z,101530.30
2018-05-23T14:33:08.870Z,101531.50
2018-05-23T14:35:37.294Z,101527.25
2018-05-23T14:38:06.444Z,101525.73
2018-05-23T14:40:36.449Z,101524.83
2018-05-23T14:43:05.712Z,101520.38
2018-05-23T14:45:34.572Z,101527.89
2018-05-23T14:48:04.564Z,101533.00
2018-05-23T14:50:33.944Z,101528.28
2018-05-23T14:53:02.481Z,101526.83
2018-05-23T14:55:31.757Z,101523.98
2018-05-23T14:58:00.270Z,101522.20
2018-05-23T15:00:29.057Z,101517.63
2018-05-23T15:02:57.405Z,101528.03
2018-05-23T15:05:25.777Z,101524.92
2018-05-23T15:07:55.009Z,101526.08
2018-05-23T15:10:23.391Z,101517.89
2018-05-23T15:12:51.835Z,101528.34
2018-05-23T15:15:21.186Z,101532.50
2018-05-23T15:17:49.952Z,101534.53
2018-05-23T15:20:18.308Z,101541.45
2018-05-23T15:22:48.542Z,101528.30
2018-05-23T15:25:16.955Z,101533.49
2018-05-23T15:27:45.306Z,101534.00
2018-05-23T15:30:13.812Z,101540.12
2018-05-23T15:32:42.304Z,101539.27
2018-05-23T15:35:10.693Z,101536.27
2018-05-23T15:37:39.972Z,101535.26
2018-05-23T15:40:08.401Z,101535.45
2018-05-23T15:42:38.446Z,101529.89
2018-05-23T15:45:07.914Z,101537.41
2018-05-23T15:47:36.271Z,101532.53
2018-05-23T15:50:05.164Z,101534.53
2018-05-23T15:52:33.543Z,101533.39
2018-05-23T15:55:01.898Z,101532.64
2018-05-23T15:57:30.338Z,101534.56
2018-05-23T15:59:58.700Z,101532.94
2018-05-23T16:02:27.859Z,101530.36
2018-05-23T16:04:56.371Z,101536.13
2018-05-23T16:07:25.661Z,101536.22
2018-05-23T16:09:54.056Z,101538.56
2018-05-23T16:12:23.500Z,101537.06
2018-05-23T16:14:52.840Z,101543.16
2018-05-23T16:17:21.328Z,101544.17
2018-05-23T16:19:50.613Z,101542.34
2018-05-23T16:22:19.065Z,101545.70
2018-05-23T16:24:47.438Z,101543.89
2018-05-23T16:27:16.742Z,101546.16
2018-05-23T16:29:46.103Z,101543.27
2018-05-23T16:32:15.243Z,101547.35
2018-05-23T16:34:44.198Z,101541.89
2018-05-23T16:37:14.895Z,101546.84
2018-05-23T16:39:43.293Z,101545.45
2018-05-23T16:42:12.443Z,101547.04
2018-05-23T16:44:43.127Z,101554.64
2018-05-23T16:47:12.071Z,101545.72
2018-05-23T16:49:40.471Z,101545.61
2018-05-23T16:52:08.915Z,101548.86
2018-05-23T16:54:37.208Z,101544.55
2018-05-23T16:57:05.635Z,101544.63
2018-05-23T16:59:34.796Z,101540.05
2018-05-23T17:02:03.178Z,101536.04
2018-05-23T17:04:31.611Z,101539.11
2018-05-23T17:07:01.090Z,101535.35
2018-05-23T17:09:29.639Z,101532.75
2018-05-23T17:11:58.024Z,101537.44
2018-05-23T17:14:26.397Z,101539.17
2018-05-23T17:16:54.927Z,101535.16
2018-05-23T17:19:24.215Z,101542.69
2018-05-23T17:21:53.467Z,101535.97
2018-05-23T17:24:22.325Z,101534.11
2018-05-23T17:26:51.464Z,101547.53
2018-05-23T17:29:19.854Z,101537.53
2018-05-23T17:31:48.277Z,101543.46
2018-05-23T17:34:17.686Z,101539.64
2018-05-23T17:36:46.168Z,101542.82
2018-05-23T17:39:14.574Z,101544.50
2018-05-23T17:41:42.989Z,101544.38
2018-05-23T17:44:12.000Z,101545.81
2018-05-23T17:46:41.135Z,101541.35
2018-05-23T17:49:09.510Z,101542.94
2018-05-23T17:51:37.904Z,101543.85
2018-05-23T17:54:06.350Z,101547.75
2018-05-23T17:56:35.529Z,101548.80
2018-05-23T17:59:05.574Z,101547.88
2018-05-23T18:01:33.946Z,101549.98
2018-05-23T18:04:03.137Z,101543.41
2018-05-23T18:06:32.452Z,101545.12
2018-05-23T18:09:01.801Z,101551.52
2018-05-23T18:11:30.211Z,101547.76
2018-05-23T18:13:59.401Z,101556.53
2018-05-23T18:16:28.615Z,101553.14
2018-05-23T18:18:57.753Z,101556.16
2018-05-23T18:21:26.312Z,101555.00
2018-05-23T18:23:55.722Z,101560.91
2018-05-23T18:26:24.116Z,101568.59
2018-05-23T18:28:52.493Z,101568.48
2018-05-23T18:31:20.872Z,101569.91
2018-05-23T18:33:49.261Z,101575.35
2018-05-23T18:36:17.752Z,101577.11
2018-05-23T18:38:47.337Z,101579.81
2018-05-23T18:41:17.259Z,101578.78
2018-05-23T18:43:47.263Z,101585.48
2018-05-23T18:46:16.543Z,101576.70
2018-05-23T18:48:45.015Z,101588.08
2018-05-23T18:51:14.233Z,101591.33
2018-05-23T18:53:42.728Z,101595.53
2018-05-23T18:56:11.777Z,101598.53
2018-05-23T18:58:40.913Z,101602.27
2018-05-23T19:01:09.501Z,101601.88
2018-05-23T19:03:38.811Z,101605.66
2018-05-23T19:06:09.919Z,101605.88
2018-05-23T19:08:39.250Z,101609.08
2018-05-23T19:11:09.310Z,101611.41
2018-05-23T19:13:37.744Z,101612.85
2018-05-23T19:16:06.106Z,101615.28
2018-05-23T19:18:35.439Z,101618.95
2018-05-23T19:21:03.843Z,101616.52
2018-05-23T19:23:32.764Z,101619.80
2018-05-23T19:26:01.248Z,101621.27
2018-05-23T19:28:30.448Z,101616.73
2018-05-23T19:30:58.887Z,101621.72
2018-05-23T19:33:28.363Z,101625.48
2018-05-23T19:35:56.868Z,101633.92
2018-05-23T19:38:25.371Z,101637.88
2018-05-23T19:40:54.877Z,101641.86
2018-05-23T19:43:26.105Z,101645.77
2018-05-23T19:45:54.539Z,101646.87
2018-05-23T19:48:22.920Z,101644.83
2018-05-23T19:50:51.323Z,101638.69
2018-05-23T19:53:20.558Z,101648.00
2018-05-23T19:55:48.951Z,101648.25
2018-05-23T19:58:18.062Z,101651.86
2018-05-23T20:00:47.510Z,101653.78
2018-05-23T20:03:17.737Z,101652.28
2018-05-23T20:05:46.383Z,101657.11
2018-05-23T20:08:15.068Z,101657.30
2018-05-23T20:10:44.119Z,101665.64
2018-05-23T20:13:12.634Z,101667.19
2018-05-23T20:15:41.207Z,101662.83
2018-05-23T20:18:10.571Z,101660.91
2018-05-23T20:20:39.057Z,101661.60
2018-05-23T20:23:08.277Z,101665.95
2018-05-23T20:25:38.495Z,101664.81
2018-05-23T20:28:07.723Z,101668.26
2018-05-23T20:30:36.356Z,101664.09
2018-05-23T20:33:05.603Z,101666.91
2018-05-23T20:35:35.025Z,101671.52
2018-05-23T20:38:03.723Z,101676.45
2018-05-23T20:40:32.631Z,101673.05
2018-05-23T20:43:01.192Z,101681.34
2018-05-23T20:45:29.630Z,101677.09
2018-05-23T20:47:58.814Z,101683.22
2018-05-23T20:50:27.187Z,101679.18
2018-05-23T20:52:56.337Z,101680.49
2018-05-23T20:55:25.511Z,101688.86
2018-05-23T20:57:54.640Z,101681.37
2018-05-23T21:00:23.867Z,101683.67
2018-05-23T21:02:52.860Z,101681.08
2018-05-23T21:05:22.522Z,101679.42
2018-05-23T21:07:51.088Z,101679.45
2018-05-23T21:10:20.257Z,101676.94
2018-05-23T21:12:48.626Z,101685.31
2018-05-23T21:15:17.254Z,101685.02
2018-05-23T21:17:46.406Z,101685.98
2018-05-23T21:20:14.773Z,101688.98
2018-05-23T21:22:43.187Z,101690.84
2018-05-23T21:25:11.548Z,101691.37
2018-05-23T21:27:39.931Z,101690.87
2018-05-23T21:33:40.891Z,101690.52
2018-05-23T21:36:09.275Z,101693.23
2018-05-23T21:38:37.629Z,101699.23
2018-05-23T21:41:06.886Z,101701.59
2018-05-23T21:43:36.033Z,101697.59
2018-05-23T21:46:04.490Z,101701.19
2018-05-23T21:48:33.049Z,101694.75
2018-05-23T21:51:01.393Z,101695.73
2018-05-23T21:53:29.799Z,101692.35
2018-05-23T21:55:58.899Z,101689.38
2018-05-23T21:58:27.291Z,101700.70
2018-05-23T22:00:55.732Z,101693.87
2018-05-23T22:03:24.339Z,101696.11
2018-05-23T22:05:53.010Z,101694.71
2018-05-23T22:08:22.212Z,101694.10
2018-05-23T22:10:51.662Z,101692.36
2018-05-23T22:13:20.067Z,101696.01
2018-05-23T22:15:49.384Z,101690.89
2018-05-23T22:18:17.878Z,101691.37
2018-05-23T22:20:46.236Z,101697.84
2018-05-23T22:23:14.687Z,101691.25
2018-05-23T22:25:43.065Z,101689.95
2018-05-23T22:28:11.828Z,101691.03
2018-05-23T22:30:40.276Z,101687.97
2018-05-23T22:33:09.394Z,101690.26
2018-05-23T22:35:38.632Z,101687.17
2018-05-23T22:38:07.734Z,101692.19
2018-05-23T22:40:36.107Z,101698.78
2018-05-23T22:43:04.484Z,101698.05
2018-05-23T22:45:32.957Z,101695.44
2018-05-23T22:48:01.438Z,101699.54
2018-05-23T22:50:29.803Z,101696.44
2018-05-23T22:52:59.118Z,101699.54
2018-05-23T22:55:28.116Z,101693.11
2018-05-23T22:57:56.805Z,101700.20
2018-05-23T23:00:25.930Z,101699.05
2018-05-23T23:02:54.285Z,101710.84
2018-05-23T23:05:22.679Z,101706.64
2018-05-23T23:07:51.445Z,101707.53
2018-05-23T23:10:20.613Z,101704.20
2018-05-23T23:12:49.142Z,101707.67
2018-05-23T23:15:17.512Z,101704.20
2018-05-23T23:17:45.931Z,101709.80
2018-05-23T23:20:14.407Z,101712.48
2018-05-23T23:22:43.564Z,101713.78
2018-05-23T23:25:12.005Z,101711.26
2018-05-23T23:27:41.182Z,101709.25
2018-05-23T23:30:09.543Z,101709.27
2018-05-23T23:32:37.943Z,101705.89
2018-05-23T23:35:07.822Z,101710.79
2018-05-23T23:37:37.009Z,101715.11
2018-05-23T23:40:05.383Z,101717.22
2018-05-23T23:42:33.785Z,101721.64
2018-05-23T23:45:02.173Z,101716.13
2018-05-23T23:47:30.542Z,101717.19
2018-05-23T23:49:59.517Z,101717.72
2018-05-23T23:52:28.231Z,101718.66
2018-05-23T23:54:56.630Z,101718.71
2018-05-23T23:57:27.672Z,101725.37
2018-05-23T23:59:56.827Z,101729.28
